Data for 11/15/2015

Time Sea-Level Adjusted Pressure Absolute Pressure Temperature Relative Humidity Dew Point   
(mb) (inHg) (mb) (inHg) (C) (F) (%) (C) (F)
00:05 1013 29.91 842 24.86 5.7 42.3 38 -7.4 18.7
00:10 1013 29.91 842 24.86 5.5 41.8 37 -8 17.6
00:15 1012 29.88 842 24.86 5.5 41.9 38 -7.7 18.2
00:20 1012 29.88 842 24.86 5.4 41.7 37 -8.3 17
00:25 1012 29.88 842 24.86 5.6 42.1 36 -8.5 16.8
00:30 1012 29.88 842 24.86 5.7 42.3 36 -8.1 17.4
00:35 1012 29.88 842 24.86 5.6 42 36 -8.3 17.1
00:40 1012 29.88 842 24.86 5.6 42.1 36 -8.3 17
00:45 1012 29.88 842 24.86 5.7 42.3 36 -8.3 17
00:50 1012 29.88 842 24.86 5.8 42.5 35 -8.4 17
00:55 1012 29.88 842 24.86 5.8 42.4 36 -8.3 17.1
01:00 1012 29.88 842 24.86 5.6 42.1 38 -7.8 18
01:05 1012 29.88 842 24.86 5.3 41.6 37 -8.1 17.4
01:10 1012 29.88 842 24.86 5.6 42 36 -8.3 17
01:15 1012 29.88 841 24.83 5.7 42.2 35 -8.6 16.6
01:20 1012 29.88 841 24.83 5.7 42.3 37 -7.8 17.9
01:25 1012 29.88 841 24.83 5.1 41.2 40 -7.3 18.9
01:30 1012 29.88 841 24.83 4.9 40.9 39 -7.8 18
01:35 1012 29.88 841 24.83 4.9 40.8 39 -8.1 17.5
01:40 1012 29.88 841 24.83 4.9 40.8 39 -8.1 17.4
01:45 1012 29.88 841 24.83 4.8 40.7 39 -8.1 17.4
01:50 1012 29.88 841 24.83 5 41 37 -8.4 16.9
01:55 1012 29.88 841 24.83 5.4 41.6 36 -8.5 16.8
02:00 1012 29.88 841 24.83 5.3 41.5 36 -8.6 16.5
02:05 1012 29.88 841 24.83 5.4 41.8 35 -8.7 16.3
02:10 1012 29.88 841 24.83 5.5 41.9 34 -9.1 15.6
02:15 1012 29.88 841 24.83 5.6 42.1 34 -9.1 15.6
02:20 1012 29.88 841 24.83 5.7 42.3 33 -9.2 15.4
02:25 1012 29.88 841 24.83 5.8 42.4 32 -9.6 14.7
02:30 1012 29.88 841 24.83 6 42.8 33 -9.2 15.4
02:35 1012 29.88 841 24.83 5.7 42.2 35 -8.6 16.4
02:40 1012 29.88 841 24.83 5.5 41.8 33 -9.4 15.1
02:45 1012 29.88 841 24.83 5.1 41.2 37 -8.3 17.1
02:50 1012 29.88 841 24.83 4.9 40.8 36 -9.1 15.6
02:55 1012 29.88 841 24.83 5 40.9 35 -9.2 15.4
03:00 1012 29.88 841 24.83 5.1 41.1 34 -9.5 14.9
03:05 1012 29.88 841 24.83 4.9 40.9 37 -8.4 16.9
03:10 1012 29.88 841 24.83 4.6 40.3 37 -9 15.8
03:15 1012 29.88 841 24.83 4.7 40.5 35 -9.3 15.3
03:20 1012 29.88 841 24.83 4.7 40.5 37 -8.8 16.2
03:25 1012 29.88 841 24.83 4.5 40 38 -8.7 16.4
03:30 1012 29.88 841 24.83 4.7 40.4 34 -10 13.9
03:35 1011 29.85 841 24.83 5.4 41.6 33 -9.6 14.6
03:40 1011 29.85 841 24.83 5.3 41.5 33 -9.6 14.7
03:45 1011 29.85 841 24.83 5.2 41.4 33 -9.7 14.5
03:50 1011 29.85 841 24.83 5.3 41.5 34 -9.2 15.4
03:55 1011 29.85 841 24.83 5.2 41.3 33 -9.8 14.4
04:00 1011 29.85 841 24.83 5.3 41.5 34 -9.4 15
04:05 1011 29.85 840 24.81 5.5 41.9 33 -9.7 14.6
04:10 1011 29.85 840 24.81 5.6 42.1 33 -9.6 14.7
04:15 1011 29.85 840 24.81 5.4 41.6 34 -9.3 15.2
04:20 1011 29.85 840 24.81 5.1 41.1 33 -9.8 14.4
04:25 1011 29.85 840 24.81 5.3 41.6 33 -9.7 14.5
04:30 1011 29.85 840 24.81 5.3 41.5 33 -9.9 14.1
04:35 1011 29.85 840 24.81 4.9 40.8 34 -9.6 14.8
04:40 1011 29.85 840 24.81 4.7 40.5 36 -9 15.9
04:45 1011 29.85 840 24.81 4.5 40.1 36 -9.4 15.1
04:50 1011 29.85 840 24.81 4.6 40.3 35 -9.7 14.5
04:55 1011 29.85 840 24.81 4.9 40.8 34 -9.8 14.4
05:00 1011 29.85 840 24.81 4.7 40.5 35 -9.5 14.9
05:05 1011 29.85 840 24.81 4.7 40.4 34 -10 14
05:10 1011 29.85 840 24.81 4.9 40.8 33 -10 14
05:15 1011 29.85 840 24.81 4.8 40.6 34 -9.8 14.3
05:20 1011 29.85 840 24.81 4.6 40.3 34 -9.9 14.2
05:25 1011 29.85 840 24.81 4.6 40.3 35 -9.7 14.6
05:30 1010 29.83 840 24.81 4.6 40.3 34 -10 14
05:35 1011 29.85 840 24.81 4.5 40.2 35 -9.8 14.4
05:40 1011 29.85 840 24.81 4.2 39.5 37 -9.4 15.1
05:45 1011 29.85 840 24.81 3.9 39.1 37 -9.3 15.2
05:50 1011 29.85 840 24.81 4 39.2 34 -10.4 13.3
05:55 1010 29.83 840 24.81 4.4 40 34 -10.1 13.8
06:00 1010 29.83 840 24.81 4.7 40.4 32 -10.5 13.1
06:05 1010 29.83 840 24.81 4.6 40.3 34 -9.8 14.3
06:10 1010 29.83 839 24.78 4.4 39.9 35 -9.9 14.1
06:15 1010 29.83 839 24.78 4.4 40 34 -10.2 13.6
06:20 1010 29.83 839 24.78 4.5 40 35 -9.8 14.4
06:25 1010 29.83 839 24.78 4.1 39.3 36 -9.9 14.2
06:30 1010 29.83 839 24.78 4.1 39.5 35 -10 14
06:35 1010 29.83 839 24.78 4.1 39.4 34 -10.4 13.2
06:40 1010 29.83 839 24.78 4.4 40 33 -10.6 12.9
06:45 1010 29.83 839 24.78 4.7 40.5 32 -10.5 13
06:50 1010 29.83 839 24.78 4.6 40.2 35 -9.8 14.4
06:55 1010 29.83 839 24.78 4.1 39.5 36 -9.8 14.4
07:00 1010 29.83 839 24.78 4 39.1 34 -10.4 13.4
07:05 1010 29.83 839 24.78 4 39.3 36 -9.8 14.4
07:10 1010 29.83 839 24.78 3.8 38.9 36 -10 14
07:15 1009 29.8 839 24.78 4 39.2 36 -9.9 14.2
07:20 1009 29.8 839 24.78 4.2 39.5 34 -10.4 13.4
07:25 1009 29.8 839 24.78 4.5 40 33 -10.5 13.1
07:30 1009 29.8 838 24.75 4.8 40.7 31 -10.9 12.4
07:35 1009 29.8 838 24.75 5.2 41.3 32 -10.1 13.8
07:40 1009 29.8 838 24.75 4.7 40.4 33 -10.3 13.4
07:45 1009 29.8 838 24.75 4.8 40.6 33 -10.1 13.9
07:50 1009 29.8 838 24.75 4.9 40.8 29 -11.5 11.3
07:55 1009 29.8 838 24.75 5.6 42 30 -10.8 12.5
08:00 1009 29.8 838 24.75 5.7 42.2 30 -10.7 12.8
08:05 1009 29.8 838 24.75 5.7 42.3 29 -10.9 12.3
08:10 1009 29.8 838 24.75 5.8 42.4 30 -10.4 13.2
08:15 1009 29.8 838 24.75 5.9 42.6 28 -11.2 11.8
08:20 1009 29.8 838 24.75 6.4 43.5 28 -10.8 12.5
08:25 1009 29.8 838 24.75 6.4 43.4 29 -10.4 13.2
08:30 1009 29.8 838 24.75 6.1 43 29 -10.8 12.5
08:35 1009 29.8 838 24.75 6.5 43.6 27 -11.2 11.9
08:40 1009 29.8 838 24.75 6.6 43.9 28 -10.6 12.9
08:45 1009 29.8 838 24.75 6.6 43.8 28 -10.9 12.3
08:50 1009 29.8 838 24.75 6.5 43.7 27 -11.2 11.8
08:55 1009 29.8 838 24.75 6.6 43.9 27 -11 12.2
09:00 1009 29.8 838 24.75 6.7 44 27 -11.1 12.1
09:05 1009 29.8 838 24.75 7.1 44.8 26 -11 12.3
09:10 1009 29.8 838 24.75 7.5 45.6 25 -11.3 11.7
09:15 1009 29.8 838 24.75 7.9 46.3 25 -11 12.3
09:20 1009 29.8 838 24.75 7.8 46 28 -9.5 14.9
09:25 1009 29.8 838 24.75 7.2 44.9 27 -10.4 13.2
09:30 1009 29.8 838 24.75 7.1 44.9 33 -8 17.7
09:35 1009 29.8 838 24.75 5.5 42 37 -7.9 17.7
09:40 1009 29.8 838 24.75 5 41.1 37 -8.3 17
09:45 1009 29.8 838 24.75 5.4 41.7 40 -7.1 19.2
09:50 1009 29.8 838 24.75 5 41 39 -7.8 18
09:55 1009 29.8 838 24.75 5.2 41.3 40 -7.2 19
10:00 1009 29.8 838 24.75 4.8 40.6 43 -6.8 19.8
10:05 1009 29.8 838 24.75 4.2 39.6 43 -7.1 19.1
10:10 1009 29.8 838 24.75 4.2 39.5 42 -7.5 18.6
10:15 1009 29.8 838 24.75 4.3 39.7 43 -7.2 19
10:20 1009 29.8 838 24.75 4 39.3 43 -7.6 18.4
10:25 1009 29.8 838 24.75 3.9 38.9 42 -7.8 18
10:30 1008 29.77 838 24.75 3.9 39 43 -7.6 18.3
10:35 1008 29.77 838 24.75 3.9 38.9 43 -7.5 18.4
10:40 1008 29.77 838 24.75 4 39.2 43 -7.6 18.3
10:45 1008 29.77 838 24.75 4.1 39.4 43 -7.3 18.8
10:50 1008 29.77 838 24.75 4.3 39.7 43 -7.2 19
10:55 1008 29.77 838 24.75 4.3 39.7 41 -8 17.7
11:00 1008 29.77 837 24.72 4.4 39.9 42 -7.4 18.6
11:05 1008 29.77 837 24.72 4.5 40.1 41 -7.5 18.5
11:10 1008 29.77 837 24.72 4.5 40.2 42 -7.4 18.6
11:15 1008 29.77 837 24.72 4.8 40.6 41 -7.4 18.7
11:20 1008 29.77 837 24.72 4.9 40.9 42 -6.9 19.6
11:25 1008 29.77 837 24.72 5 41.1 41 -7.1 19.2
11:30 1008 29.77 837 24.72 5.4 41.6 41 -6.8 19.7
11:35 1008 29.77 837 24.72 5.5 41.9 42 -6.5 20.3
11:40 1008 29.77 837 24.72 5.2 41.4 40 -7.3 18.8
11:45 1008 29.77 837 24.72 5.5 42 42 -6.5 20.3
11:50 1008 29.77 837 24.72 5.4 41.7 39 -7.6 18.3
11:55 1008 29.77 837 24.72 6 42.8 42 -6.1 21.1
12:00 1008 29.77 837 24.72 6.2 43.1 41 -6.2 20.8
12:05 1008 29.77 837 24.72 6.2 43.1 40 -6.3 20.7
12:10 1008 29.77 837 24.72 6 42.8 37 -7.6 18.3
12:15 1008 29.77 837 24.72 6.3 43.4 37 -7.5 18.5
12:20 1008 29.77 837 24.72 6.4 43.6 43 -5.4 22.3
12:25 1008 29.77 837 24.72 6.6 43.8 34 -8.2 17.3
12:30 1008 29.77 837 24.72 7.1 44.8 34 -7.8 18
12:35 1008 29.77 837 24.72 7.6 45.6 33 -7.9 17.8
12:40 1008 29.77 837 24.72 7.8 46.1 32 -7.7 18.1
12:45 1008 29.77 837 24.72 7.9 46.2 30 -8.8 16.2
12:50 1008 29.77 837 24.72 7.5 45.5 30 -8.9 16
12:55 1007 29.74 837 24.72 7.3 45.1 30 -9.2 15.5
13:00 1007 29.74 836 24.69 7.3 45.2 31 -8.9 16.1
13:05 1007 29.74 836 24.69 7.6 45.7 30 -8.7 16.3
13:10 1007 29.74 836 24.69 8.1 46.6 29 -9.1 15.7
13:15 1007 29.74 836 24.69 8.8 47.9 29 -8.4 16.9
13:20 1007 29.74 836 24.69 8.7 47.6 27 -9.3 15.3
13:25 1007 29.74 836 24.69 8.6 47.5 28 -8.9 15.9
13:30 1007 29.74 836 24.69 8.5 47.4 30 -8 17.5
13:35 1007 29.74 836 24.69 8.6 47.6 28 -8.6 16.4
13:40 1007 29.74 836 24.69 8.9 48 25 -9.9 14.1
13:45 1006 29.71 836 24.69 9.2 48.5 27 -9 15.9
13:50 1006 29.71 836 24.69 9.2 48.6 25 -9.7 14.5
13:55 1006 29.71 835 24.66 9.6 49.3 25 -9.2 15.4
14:00 1006 29.71 835 24.66 9.5 49.2 25 -9.3 15.2
14:05 1006 29.71 835 24.66 9 48.1 26 -9.4 15.2
14:10 1006 29.71 835 24.66 9 48.2 28 -8.5 16.7
14:15 1006 29.71 835 24.66 9.4 48.9 26 -9.1 15.6
14:20 1006 29.71 835 24.66 9.6 49.2 26 -9.2 15.4
14:25 1006 29.71 835 24.66 9.4 48.9 27 -8.8 16.1
14:30 1006 29.71 835 24.66 9.5 49.1 26 -8.9 16
14:35 1005 29.68 835 24.66 9.7 49.5 25 -9.2 15.4
14:40 1005 29.68 835 24.66 9.2 48.6 27 -8.8 16.2
14:45 1005 29.68 834 24.63 9.4 48.9 27 -8.9 16
14:50 1005 29.68 834 24.63 9.2 48.6 27 -9 15.8
14:55 1005 29.68 834 24.63 10 49.9 26 -8.4 16.8
15:00 1005 29.68 834 24.63 10.2 50.3 26 -8.2 17.2
15:05 1005 29.68 834 24.63 10.2 50.4 26 -8.3 17.1
15:10 1005 29.68 834 24.63 10.1 50.2 26 -8.4 16.8
15:15 1005 29.68 834 24.63 10.7 51.3 24 -8.8 16.2
15:20 1005 29.68 834 24.63 10.8 51.5 24 -8.7 16.4
15:25 1005 29.68 834 24.63 11 51.7 24 -8.8 16.2
15:30 1005 29.68 834 24.63 10.9 51.7 25 -8.3 17.1
15:35 1005 29.68 834 24.63 10.4 50.8 28 -7.4 18.7
15:40 1005 29.68 834 24.63 10.7 51.2 27 -7.5 18.5
15:45 1005 29.68 834 24.63 11 51.7 29 -6.4 20.5
15:50 1004 29.65 834 24.63 10.8 51.5 27 -7.2 19
15:55 1004 29.65 834 24.63 10.7 51.3 27 -7.3 18.9
16:00 1004 29.65 834 24.63 10.9 51.6 30 -6.1 21
16:05 1004 29.65 834 24.63 10.6 51 32 -5.4 22.3
16:10 1004 29.65 834 24.63 10 50 33 -5.5 22
16:15 1004 29.65 833 24.6 9.9 49.8 33 -5.6 21.9
16:20 1004 29.65 833 24.6 10.2 50.4 32 -5.6 21.9
16:25 1004 29.65 834 24.63 10.2 50.4 31 -6.4 20.6
16:30 1004 29.65 834 24.63 9.9 49.9 30 -6.9 19.6
16:35 1004 29.65 833 24.6 10.4 50.6 28 -7.3 18.8
16:40 1004 29.65 833 24.6 10.3 50.5 29 -7 19.4
16:45 1004 29.65 833 24.6 10.2 50.3 29 -7.2 19.1
16:50 1004 29.65 833 24.6 9.8 49.6 30 -6.8 19.7
16:55 1004 29.65 833 24.6 9.6 49.3 32 -6.5 20.4
17:00 1004 29.65 833 24.6 9.5 49 32 -6.3 20.7
17:05 1004 29.65 833 24.6 9.5 49 34 -5.7 21.7
17:10 1004 29.65 833 24.6 9.1 48.3 36 -5.3 22.5
17:15 1004 29.65 833 24.6 8.7 47.7 36 -5.4 22.4
17:20 1004 29.65 833 24.6 8.6 47.6 36 -5.4 22.2
17:25 1004 29.65 833 24.6 8.5 47.3 38 -5.2 22.7
17:30 1004 29.65 833 24.6 8.3 46.9 38 -5.1 22.9
17:35 1004 29.65 833 24.6 8.2 46.8 38 -5.4 22.3
17:40 1004 29.65 833 24.6 8 46.5 41 -4.5 23.8
17:45 1004 29.65 833 24.6 7.3 45.1 42 -4.6 23.7
17:50 1004 29.65 833 24.6 6.9 44.4 43 -4.7 23.5
17:55 1004 29.65 833 24.6 6.9 44.3 42 -5.2 22.6
18:00 1004 29.65 833 24.6 7.1 44.7 41 -5.4 22.3
18:05 1004 29.65 833 24.6 7.2 45 40 -5.4 22.2
18:10 1004 29.65 833 24.6 7.3 45.2 41 -5 23
18:15 1004 29.65 833 24.6 7.1 44.8 42 -5 23.1
18:20 1004 29.65 833 24.6 6.7 44.1 44 -4.8 23.4
18:25 1004 29.65 833 24.6 6.5 43.7 45 -4.6 23.8
18:30 1004 29.65 833 24.6 6.3 43.3 44 -5 23
18:35 1004 29.65 833 24.6 6.2 43.2 46 -4.5 24
18:40 1004 29.65 833 24.6 5.9 42.7 47 -4.6 23.7
18:45 1004 29.65 833 24.6 6 42.9 47 -4.4 24.1
18:50 1004 29.65 833 24.6 5.8 42.4 46 -4.9 23.2
18:55 1004 29.65 833 24.6 5.9 42.7 46 -4.8 23.3
19:00 1004 29.65 833 24.6 5.7 42.2 49 -4.3 24.2
19:05 1004 29.65 833 24.6 5.4 41.8 47 -5 23
19:10 1004 29.65 833 24.6 5.6 42 48 -4.5 24
19:15 1004 29.65 833 24.6 4.7 40.5 51 -4.7 23.5
19:20 1004 29.65 833 24.6 4.6 40.3 51 -4.5 23.8
19:25 1004 29.65 833 24.6 4.1 39.4 52 -4.8 23.3
19:30 1004 29.65 833 24.6 4.1 39.4 49 -5.6 22
19:35 1004 29.65 833 24.6 4 39.2 45 -6.9 19.6
19:40 1004 29.65 833 24.6 4.3 39.7 45 -6.6 20.1
19:45 1004 29.65 833 24.6 4.3 39.7 44 -6.9 19.6
19:50 1004 29.65 833 24.6 4.4 40 43 -7.2 19.1
19:55 1004 29.65 833 24.6 4.6 40.2 41 -7.5 18.4
20:00 1004 29.65 833 24.6 4.8 40.7 42 -7.1 19.2
20:05 1004 29.65 833 24.6 4.9 40.8 40 -7.6 18.3
20:10 1004 29.65 833 24.6 5 41 40 -7.4 18.6
20:15 1004 29.65 833 24.6 5.2 41.4 38 -7.9 17.8
20:20 1004 29.65 833 24.6 5.4 41.7 38 -7.9 17.8
20:25 1004 29.65 833 24.6 5.3 41.6 38 -8 17.7
20:30 1004 29.65 833 24.6 5.3 41.6 37 -8.3 17.1
20:35 1004 29.65 833 24.6 5.4 41.8 36 -8.5 16.7
20:40 1003 29.62 833 24.6 5.4 41.8 37 -8 17.7
20:45 1003 29.62 833 24.6 4.7 40.5 41 -7.4 18.6
20:50 1003 29.62 833 24.6 4.5 40.1 37 -8.8 16.2
20:55 1003 29.62 833 24.6 4.9 40.8 37 -8.5 16.6
21:00 1003 29.62 833 24.6 4.8 40.6 39 -7.9 17.7
21:05 1003 29.62 833 24.6 4.2 39.6 42 -7.6 18.4
21:10 1003 29.62 832 24.57 3.9 39 43 -7.7 18.1
21:15 1003 29.62 832 24.57 4.2 39.5 39 -8.5 16.6
21:20 1003 29.62 832 24.57 4.4 39.9 41 -7.8 18
21:25 1003 29.62 832 24.57 4 39.2 42 -7.9 17.8
21:30 1003 29.62 832 24.57 4 39.2 42 -7.9 17.8
21:35 1003 29.62 832 24.57 3.7 38.6 44 -7.4 18.6
21:40 1003 29.62 832 24.57 3.4 38.1 44 -7.9 17.9
21:45 1003 29.62 832 24.57 3.5 38.3 43 -7.9 17.7
21:50 1003 29.62 832 24.57 3.8 38.9 41 -8.2 17.3
21:55 1003 29.62 832 24.57 4 39.3 39 -8.7 16.3
22:00 1003 29.62 832 24.57 4.1 39.5 40 -8.4 17
22:05 1003 29.62 832 24.57 4.2 39.5 38 -8.9 16
22:10 1003 29.62 832 24.57 4.4 39.9 38 -8.6 16.5
22:15 1003 29.62 832 24.57 4.2 39.6 40 -8.2 17.2
22:20 1003 29.62 832 24.57 4 39.2 39 -8.7 16.4
22:25 1003 29.62 832 24.57 4.1 39.4 39 -8.5 16.7
22:30 1003 29.62 832 24.57 4 39.2 39 -8.6 16.5
22:35 1003 29.62 832 24.57 4 39.2 40 -8.5 16.7
22:40 1003 29.62 832 24.57 3.9 39.1 41 -8.2 17.2
22:45 1003 29.62 832 24.57 3.8 38.9 39 -8.8 16.1
22:50 1003 29.62 832 24.57 3.8 38.9 40 -8.5 16.7
22:55 1003 29.62 832 24.57 3.7 38.6 40 -8.8 16.2
23:00 1003 29.62 832 24.57 3.9 39 39 -8.8 16.2
23:05 1003 29.62 832 24.57 4.2 39.6 38 -9 15.8
23:10 1003 29.62 832 24.57 4.5 40 36 -9.4 15.2
23:15 1003 29.62 832 24.57 4.5 40.2 38 -8.8 16.2
23:20 1003 29.62 832 24.57 3.9 39.1 40 -8.5 16.7
23:25 1003 29.62 832 24.57 3.6 38.5 40 -8.8 16.1
23:30 1003 29.62 832 24.57 3.6 38.4 42 -8.2 17.3
23:35 1003 29.62 832 24.57 3.2 37.8 43 -8.1 17.4
23:40 1003 29.62 832 24.57 2.8 37.1 45 -7.9 17.7
23:45 1003 29.62 832 24.57 2.6 36.7 45 -8.2 17.3
23:50 1003 29.62 832 24.57 2.8 37.1 44 -8.2 17.3
23:55 1003 29.62 832 24.57 2.9 37.2 44 -8.3 17.1
24:00 1003 29.62 832 24.57 3.1 37.6 43 -8.4 16.8